createdAt,value
2023-02-16T00:01:28.874Z,99180.44
2023-02-16T00:03:58.156Z,99177.00
2023-02-16T00:06:27.682Z,99172.94
2023-02-16T00:08:58.546Z,99171.81
2023-02-16T00:11:51.382Z,99166.66
2023-02-16T00:14:26.180Z,99163.19
2023-02-16T00:16:57.843Z,99167.09
2023-02-16T00:19:28.197Z,99161.63
2023-02-16T00:21:59.113Z,99135.88
2023-02-16T00:24:29.738Z,99163.09
2023-02-16T00:26:59.310Z,99158.19
2023-02-16T00:29:30.838Z,99159.84
2023-02-16T00:32:03.182Z,99157.19
2023-02-16T00:34:34.569Z,99156.16
2023-02-16T00:37:05.205Z,99147.56
2023-02-16T00:39:34.852Z,99160.41
2023-02-16T00:42:06.607Z,99162.00
2023-02-16T00:44:40.699Z,99158.56
2023-02-16T00:47:20.364Z,99134.38
2023-02-16T00:49:49.404Z,99155.50
2023-02-16T00:52:34.349Z,99152.03
2023-02-16T00:55:04.794Z,99142.56
2023-02-16T00:57:37.385Z,99144.16
2023-02-16T01:00:09.779Z,99151.66
2023-02-16T01:02:40.065Z,99147.25
2023-02-16T01:05:09.061Z,99143.66
2023-02-16T01:07:54.854Z,99146.31
2023-02-16T01:10:43.298Z,99141.94
2023-02-16T01:13:13.099Z,99143.63
2023-02-16T01:15:42.256Z,99144.66
2023-02-16T01:21:27.097Z,99133.44
2023-02-16T01:23:57.477Z,99138.50
2023-02-16T01:26:49.796Z,99137.63
2023-02-16T01:29:55.398Z,99140.97
2023-02-16T01:32:29.110Z,99127.56
2023-02-16T01:35:04.156Z,99124.09
2023-02-16T01:37:35.961Z,99134.94
2023-02-16T01:40:05.666Z,99134.13
2023-02-16T01:42:38.830Z,99131.34
2023-02-16T01:45:15.500Z,99126.69
2023-02-16T01:47:53.055Z,99121.41
2023-02-16T01:50:24.493Z,99122.94
2023-02-16T01:52:58.935Z,99123.75
2023-02-16T01:55:31.150Z,99121.41
2023-02-16T01:58:05.439Z,99123.03
2023-02-16T02:01:12.161Z,99112.06
2023-02-16T02:04:00.191Z,99112.88
2023-02-16T02:06:36.325Z,99108.13
2023-02-16T02:09:09.995Z,99117.97
2023-02-16T02:11:43.343Z,99100.25
2023-02-16T02:14:17.021Z,99115.56
2023-02-16T02:16:56.879Z,99106.78
2023-02-16T02:19:25.606Z,99111.06
2023-02-16T02:22:33.494Z,99106.13
2023-02-16T02:25:29.647Z,99101.84
2023-02-16T02:28:07.835Z,99101.13
2023-02-16T02:30:48.755Z,99086.72
2023-02-16T02:33:35.860Z,99086.06
2023-02-16T02:36:20.018Z,99081.34
2023-02-16T02:38:59.364Z,99077.63
2023-02-16T02:41:55.381Z,99086.25
2023-02-16T02:44:28.268Z,99087.66
2023-02-16T02:46:57.626Z,99089.66
2023-02-16T02:49:26.515Z,99079.97
2023-02-16T02:51:57.148Z,99091.97
2023-02-16T02:54:46.777Z,99072.22
2023-02-16T02:57:37.070Z,99087.78
2023-02-16T03:00:29.801Z,99077.03
2023-02-16T03:03:04.000Z,99082.66
2023-02-16T03:05:33.697Z,99065.97
2023-02-16T03:08:14.225Z,99087.53
2023-02-16T03:11:03.441Z,99083.06
2023-02-16T03:13:36.144Z,99079.47
2023-02-16T03:16:10.269Z,99074.94
2023-02-16T03:18:58.277Z,99080.22
2023-02-16T03:21:45.907Z,99078.25
2023-02-16T03:24:35.805Z,99076.50
2023-02-16T03:27:21.891Z,99062.81
2023-02-16T03:29:53.226Z,99064.00
2023-02-16T03:32:23.390Z,99071.44
2023-02-16T03:34:52.019Z,99058.97
2023-02-16T03:37:20.410Z,99054.66
2023-02-16T03:40:06.025Z,99042.78
2023-02-16T03:42:35.169Z,99045.13
2023-02-16T03:45:03.766Z,99052.69
2023-02-16T03:47:34.492Z,99045.19
2023-02-16T03:50:03.194Z,99047.44
2023-02-16T03:52:31.361Z,99039.25
2023-02-16T03:55:00.684Z,99040.41
2023-02-16T03:57:31.293Z,99040.09
2023-02-16T04:00:00.440Z,99040.94
2023-02-16T04:02:29.175Z,99041.69
2023-02-16T04:04:59.289Z,99044.31
2023-02-16T04:07:28.073Z,99048.25
2023-02-16T04:09:57.315Z,99057.59
2023-02-16T04:12:38.228Z,99053.09
2023-02-16T04:15:08.377Z,99072.78
2023-02-16T04:17:36.883Z,99095.16
2023-02-16T04:20:08.922Z,99094.97
2023-02-16T04:22:37.317Z,99098.63
2023-02-16T04:25:06.108Z,99081.06
2023-02-16T04:27:34.953Z,99096.53
2023-02-16T04:30:03.598Z,99100.81
2023-02-16T04:32:32.744Z,99100.84
2023-02-16T04:35:00.957Z,99100.81
2023-02-16T04:37:31.896Z,99096.94
2023-02-16T04:40:01.153Z,99092.25
2023-02-16T04:42:29.733Z,99099.00
2023-02-16T04:44:58.350Z,99098.28
2023-02-16T04:47:31.832Z,99084.03
2023-02-16T04:50:00.346Z,99074.69
2023-02-16T04:52:30.948Z,99084.94
2023-02-16T04:55:00.881Z,99071.84
2023-02-16T04:57:31.454Z,99073.50
2023-02-16T05:00:02.535Z,99062.88
2023-02-16T05:02:33.736Z,99080.69
2023-02-16T05:05:02.172Z,99088.38
2023-02-16T05:07:32.518Z,99093.13
2023-02-16T05:10:01.442Z,99084.59
2023-02-16T05:12:47.672Z,99084.13
2023-02-16T05:15:16.611Z,99071.38
2023-02-16T05:17:45.480Z,99074.94
2023-02-16T05:20:15.201Z,99082.75
2023-02-16T05:22:46.456Z,99077.69
2023-02-16T05:25:15.952Z,99096.56
2023-02-16T05:27:45.160Z,99096.06
2023-02-16T05:30:16.453Z,99095.97
2023-02-16T05:32:45.487Z,99094.47
2023-02-16T05:35:14.376Z,99090.25
2023-02-16T05:37:43.176Z,99093.63
2023-02-16T05:40:14.966Z,99097.00
2023-02-16T05:42:43.625Z,99101.09
2023-02-16T05:45:12.450Z,99102.34
2023-02-16T05:47:41.013Z,99099.41
2023-02-16T05:50:10.050Z,99101.75
2023-02-16T05:52:40.263Z,99108.44
2023-02-16T05:55:09.791Z,99108.38
2023-02-16T05:57:39.606Z,99114.22
2023-02-16T06:00:09.626Z,99109.75
2023-02-16T06:02:38.345Z,99106.47
2023-02-16T06:05:07.193Z,99115.50
2023-02-16T06:07:36.296Z,99115.50
2023-02-16T06:10:05.076Z,99111.31
2023-02-16T06:12:34.870Z,99109.50
2023-02-16T06:15:05.308Z,99115.34
2023-02-16T06:17:34.121Z,99107.44
2023-02-16T06:20:02.498Z,99113.66
2023-02-16T06:22:30.685Z,99114.22
2023-02-16T06:24:59.168Z,99125.22
2023-02-16T06:27:28.800Z,99126.00
2023-02-16T06:29:57.174Z,99130.38
2023-02-16T06:32:27.611Z,99126.19
2023-02-16T06:34:55.942Z,99117.09
2023-02-16T06:37:25.915Z,99117.34
2023-02-16T06:39:55.391Z,99125.72
2023-02-16T06:42:23.972Z,99122.25
2023-02-16T06:44:52.693Z,99116.91
2023-02-16T06:47:21.053Z,99121.66
2023-02-16T06:49:50.873Z,99126.03
2023-02-16T06:52:19.655Z,99135.00
2023-02-16T06:54:47.765Z,99137.03
2023-02-16T06:57:17.337Z,99137.91
2023-02-16T06:59:46.381Z,99147.25
2023-02-16T07:02:14.608Z,99144.53
2023-02-16T07:04:43.473Z,99142.22
2023-02-16T07:07:13.471Z,99153.44
2023-02-16T07:09:42.025Z,99144.34
2023-02-16T07:12:10.308Z,99149.31
2023-02-16T07:14:38.722Z,99145.88
2023-02-16T07:17:07.015Z,99149.28
2023-02-16T07:19:35.387Z,99155.59
2023-02-16T07:22:05.766Z,99153.03
2023-02-16T07:24:36.283Z,99146.34
2023-02-16T07:27:06.072Z,99154.13
2023-02-16T07:29:34.811Z,99142.38
2023-02-16T07:32:04.464Z,99140.53
2023-02-16T07:34:33.510Z,99138.06
2023-02-16T07:37:02.434Z,99130.63
2023-02-16T07:39:31.521Z,99132.69
2023-02-16T07:42:01.228Z,99136.19
2023-02-16T07:44:29.830Z,99138.13
2023-02-16T07:46:57.892Z,99136.50
2023-02-16T07:49:26.373Z,99129.34
2023-02-16T07:51:54.754Z,99134.69
2023-02-16T07:54:23.087Z,99117.09
2023-02-16T07:56:51.266Z,99132.47
2023-02-16T07:59:21.058Z,99125.09
2023-02-16T08:01:49.304Z,99128.84
2023-02-16T08:04:17.756Z,99119.06
2023-02-16T08:06:47.180Z,99123.94
2023-02-16T08:09:15.646Z,99117.16
2023-02-16T08:11:44.330Z,99119.75
2023-02-16T08:14:12.984Z,99121.72
2023-02-16T08:16:42.889Z,99113.53
2023-02-16T08:19:13.383Z,99105.63
2023-02-16T08:21:42.011Z,99113.97
2023-02-16T08:24:14.760Z,99118.50
2023-02-16T08:26:44.933Z,99107.56
2023-02-16T08:29:15.462Z,99111.34
2023-02-16T08:31:47.464Z,99119.31
2023-02-16T08:34:17.661Z,99120.47
2023-02-16T08:36:48.441Z,99130.06
2023-02-16T08:39:19.145Z,99122.78
2023-02-16T08:41:48.868Z,99119.50
2023-02-16T08:44:19.151Z,99124.44
2023-02-16T08:46:51.261Z,99126.50
2023-02-16T08:49:22.140Z,99115.66
2023-02-16T08:51:53.471Z,99122.06
2023-02-16T08:54:26.826Z,99130.00
2023-02-16T08:56:56.269Z,99122.69
2023-02-16T08:59:28.479Z,99129.91
2023-02-16T09:01:59.590Z,99125.16
2023-02-16T09:04:29.592Z,99128.75
2023-02-16T09:07:00.025Z,99126.28
2023-02-16T09:09:29.048Z,99126.44
2023-02-16T09:11:58.521Z,99130.84
2023-02-16T09:14:28.133Z,99134.34
2023-02-16T09:16:58.453Z,99136.91
2023-02-16T09:19:28.464Z,99137.38
2023-02-16T09:21:57.079Z,99137.47
2023-02-16T09:24:25.551Z,99145.31
2023-02-16T09:26:54.152Z,99152.19
2023-02-16T09:29:23.190Z,99155.88
2023-02-16T09:31:52.329Z,99159.53
2023-02-16T09:34:22.290Z,99157.06
2023-02-16T09:36:53.192Z,99163.16
2023-02-16T09:39:21.667Z,99167.59
2023-02-16T09:42:19.678Z,99167.72
2023-02-16T09:44:55.477Z,99172.16
2023-02-16T09:47:31.512Z,99165.56
2023-02-16T09:50:01.482Z,99163.31
2023-02-16T09:52:37.617Z,99156.59
2023-02-16T09:55:09.326Z,99161.06
2023-02-16T09:57:48.243Z,99150.25
2023-02-16T10:00:27.307Z,99147.09
2023-02-16T10:03:03.219Z,99143.84
2023-02-16T10:05:39.910Z,99141.41
2023-02-16T10:08:13.450Z,99135.59
2023-02-16T10:10:50.123Z,99143.38
2023-02-16T10:13:26.432Z,99142.66
2023-02-16T10:15:58.323Z,99139.47
2023-02-16T10:18:31.870Z,99132.09
2023-02-16T10:21:03.965Z,99120.44
2023-02-16T10:23:48.276Z,99128.34
2023-02-16T10:26:20.633Z,99117.53
2023-02-16T10:28:51.719Z,99119.31
2023-02-16T10:31:28.491Z,99113.47
2023-02-16T10:34:09.673Z,99109.47
2023-02-16T10:37:04.207Z,99105.28
2023-02-16T10:39:46.461Z,99103.72
2023-02-16T10:42:22.878Z,99101.16
2023-02-16T10:44:59.672Z,99098.66
2023-02-16T10:47:34.431Z,99093.75
2023-02-16T10:50:03.530Z,99091.28
2023-02-16T10:52:37.289Z,99085.38
2023-02-16T10:55:08.511Z,99086.38
2023-02-16T10:57:37.386Z,99088.41
2023-02-16T11:00:14.013Z,99079.97
2023-02-16T11:02:45.703Z,99087.75
2023-02-16T11:05:32.521Z,99082.72
2023-02-16T11:08:02.907Z,99074.28
2023-02-16T11:10:42.639Z,99077.75
2023-02-16T11:13:28.848Z,99065.13
2023-02-16T11:16:02.309Z,99064.34
2023-02-16T11:18:36.581Z,99062.72
2023-02-16T11:21:06.647Z,99054.22
2023-02-16T11:23:37.581Z,99050.06
2023-02-16T11:26:22.899Z,99037.34
2023-02-16T11:28:54.258Z,99035.66
2023-02-16T11:31:30.518Z,99033.13
2023-02-16T11:34:03.759Z,99013.56
2023-02-16T11:36:37.934Z,99029.94
2023-02-16T11:39:11.226Z,99024.00
2023-02-16T11:41:45.589Z,99025.72
2023-02-16T11:44:31.036Z,99024.06
2023-02-16T11:47:01.107Z,99020.66
2023-02-16T11:49:33.259Z,99022.38
2023-02-16T11:52:02.777Z,99013.84
2023-02-16T11:54:31.467Z,99013.81
2023-02-16T11:57:05.813Z,99003.56
2023-02-16T11:59:37.801Z,99001.81
2023-02-16T12:02:30.940Z,98999.25
2023-02-16T12:05:15.489Z,98993.28
2023-02-16T12:07:53.466Z,98996.72
2023-02-16T12:10:27.299Z,98984.75
2023-02-16T12:13:03.939Z,98987.31
2023-02-16T12:15:43.106Z,98988.16
2023-02-16T12:18:27.209Z,98982.16
2023-02-16T12:21:05.214Z,98973.56
2023-02-16T12:23:41.346Z,98972.69
2023-02-16T12:26:34.223Z,98966.69
2023-02-16T12:29:20.859Z,98965.78
2023-02-16T12:32:07.785Z,98961.50
2023-02-16T12:34:48.813Z,98959.72
2023-02-16T12:37:27.268Z,98960.59
2023-02-16T12:40:04.402Z,98952.03
2023-02-16T12:42:50.259Z,98952.84
2023-02-16T12:45:23.302Z,98954.47
2023-02-16T12:47:56.871Z,98950.97
2023-02-16T12:50:29.029Z,98954.28
2023-02-16T12:53:02.568Z,98950.84
2023-02-16T12:55:37.103Z,98936.16
2023-02-16T12:58:16.913Z,98937.91
2023-02-16T13:00:49.824Z,98940.59
2023-02-16T13:03:28.262Z,98924.25
2023-02-16T13:06:08.420Z,98919.94
2023-02-16T13:08:45.131Z,98924.13
2023-02-16T13:11:21.218Z,98906.84
2023-02-16T13:13:51.615Z,98918.00
2023-02-16T13:16:30.569Z,98914.47
2023-02-16T13:19:00.067Z,98907.69
2023-02-16T13:21:56.071Z,98905.06
2023-02-16T13:24:37.673Z,98899.91
2023-02-16T13:27:19.174Z,98898.16
2023-02-16T13:30:11.567Z,98906.56
2023-02-16T13:33:07.483Z,98898.81
2023-02-16T13:35:54.218Z,98892.69
2023-02-16T13:38:55.917Z,98898.56
2023-02-16T13:41:46.763Z,98890.81
2023-02-16T13:44:18.224Z,98894.22
2023-02-16T13:46:50.545Z,98903.56
2023-02-16T13:49:39.486Z,98902.53
2023-02-16T13:52:10.291Z,98893.22
2023-02-16T13:54:44.092Z,98883.72
2023-02-16T13:57:14.407Z,98890.66
2023-02-16T14:00:01.417Z,98891.59
2023-02-16T14:03:12.087Z,98888.13
2023-02-16T14:05:44.296Z,98888.91
2023-02-16T14:08:21.311Z,98893.09
2023-02-16T14:11:09.065Z,98896.56
2023-02-16T14:13:55.599Z,98900.88
2023-02-16T14:16:34.024Z,98895.72
2023-02-16T14:19:06.192Z,98900.84
2023-02-16T14:21:40.604Z,98901.75
2023-02-16T14:24:15.068Z,98894.88
2023-02-16T14:26:55.481Z,98900.03
2023-02-16T14:29:29.020Z,98895.72
2023-02-16T14:32:02.914Z,98895.72
2023-02-16T14:34:37.888Z,98894.91
2023-02-16T14:37:29.558Z,98900.69
2023-02-16T14:40:16.603Z,98898.88
2023-02-16T14:42:51.795Z,98899.16
2023-02-16T14:45:44.847Z,98900.75
2023-02-16T14:48:28.313Z,98898.97
2023-02-16T14:51:19.890Z,98896.34
2023-02-16T14:54:17.462Z,98902.31
2023-02-16T14:56:50.939Z,98906.50
2023-02-16T14:59:31.498Z,98909.06
2023-02-16T15:02:00.720Z,98901.38
2023-02-16T15:04:30.940Z,98899.53
2023-02-16T15:07:03.366Z,98905.53
2023-02-16T15:09:36.496Z,98916.63
2023-02-16T15:12:23.969Z,98903.84
2023-02-16T15:14:56.125Z,98907.28
2023-02-16T15:17:34.409Z,98882.47
2023-02-16T15:20:10.841Z,98903.91
2023-02-16T15:22:44.664Z,98895.47
2023-02-16T15:25:24.120Z,98888.50
2023-02-16T15:27:59.277Z,98899.69
2023-02-16T15:30:31.657Z,98901.59
2023-02-16T15:33:03.093Z,98890.63
2023-02-16T15:35:36.183Z,98893.13
2023-02-16T15:38:20.509Z,98888.81
2023-02-16T15:40:53.136Z,98892.38
2023-02-16T15:43:32.204Z,98879.59
2023-02-16T15:46:03.220Z,98883.94
2023-02-16T15:48:33.689Z,98876.16
2023-02-16T15:51:09.136Z,98883.75
2023-02-16T15:53:44.809Z,98872.72
2023-02-16T15:56:38.263Z,98884.69
2023-02-16T15:59:23.938Z,98878.69
2023-02-16T16:01:59.301Z,98871.94
2023-02-16T16:04:29.462Z,98876.28
2023-02-16T16:07:00.500Z,98872.88
2023-02-16T16:09:31.293Z,98875.47
2023-02-16T16:12:07.321Z,98879.75
2023-02-16T16:14:38.524Z,98873.94
2023-02-16T16:17:10.237Z,98871.53
2023-02-16T16:19:40.377Z,98870.78
2023-02-16T16:22:33.169Z,98874.44
2023-02-16T16:25:02.830Z,98869.31
2023-02-16T16:27:36.223Z,98882.25
2023-02-16T16:30:15.460Z,98884.78
2023-02-16T16:32:44.604Z,98883.00
2023-02-16T16:35:23.748Z,98885.59
2023-02-16T16:37:54.306Z,98883.03
2023-02-16T16:40:26.384Z,98880.59
2023-02-16T16:43:17.714Z,98890.09
2023-02-16T16:45:48.684Z,98893.50
2023-02-16T16:48:21.493Z,98894.41
2023-02-16T16:50:50.801Z,98893.63
2023-02-16T16:53:43.366Z,98891.94
2023-02-16T16:56:13.579Z,98886.88
2023-02-16T16:58:44.020Z,98879.25
2023-02-16T17:01:14.652Z,98883.59
2023-02-16T17:03:43.689Z,98881.97
2023-02-16T17:06:14.363Z,98870.06
2023-02-16T17:08:43.257Z,98873.53
2023-02-16T17:11:20.025Z,98874.34
2023-02-16T17:13:49.993Z,98867.56
2023-02-16T17:16:22.343Z,98870.16
2023-02-16T17:18:50.865Z,98865.09
2023-02-16T17:21:19.615Z,98871.09
2023-02-16T17:23:53.203Z,98866.88
2023-02-16T17:26:22.656Z,98877.19
2023-02-16T17:28:53.345Z,98874.63
2023-02-16T17:31:21.934Z,98874.66
2023-02-16T17:33:50.205Z,98869.53
2023-02-16T17:36:19.559Z,98871.25
2023-02-16T17:38:49.536Z,98872.16
2023-02-16T17:41:22.011Z,98882.41
2023-02-16T17:43:51.852Z,98869.59
2023-02-16T17:46:22.628Z,98874.72
2023-02-16T17:48:53.563Z,98876.44
2023-02-16T17:51:24.191Z,98879.84
2023-02-16T17:53:52.861Z,98872.19
2023-02-16T17:56:24.376Z,98876.44
2023-02-16T17:58:55.219Z,98876.47
2023-02-16T18:01:23.856Z,98884.13
2023-02-16T18:03:53.674Z,98884.16
2023-02-16T18:06:28.068Z,98878.16
2023-02-16T18:08:57.272Z,98875.59
2023-02-16T18:11:25.981Z,98870.50
2023-02-16T18:13:55.928Z,98879.00
2023-02-16T18:16:28.853Z,98877.31
2023-02-16T18:19:00.472Z,98865.38
2023-02-16T18:21:29.381Z,98866.22
2023-02-16T18:23:57.650Z,98856.84
2023-02-16T18:26:33.827Z,98868.78
2023-02-16T18:29:03.776Z,98870.50
2023-02-16T18:31:32.791Z,98867.06
2023-02-16T18:34:01.023Z,98867.94
2023-02-16T18:36:29.961Z,98872.19
2023-02-16T18:38:58.278Z,98871.34
2023-02-16T18:41:28.917Z,98872.19
2023-02-16T18:43:59.301Z,98872.19
2023-02-16T18:46:29.717Z,98873.03
2023-02-16T18:48:58.668Z,98874.75
2023-02-16T18:51:30.327Z,98878.16
2023-02-16T18:54:02.395Z,98879.84
2023-02-16T18:56:31.086Z,98873.91
2023-02-16T18:58:59.430Z,98874.72
2023-02-16T19:01:35.618Z,98871.31
2023-02-16T19:04:05.247Z,98865.34
2023-02-16T19:06:34.614Z,98873.88
2023-02-16T19:09:05.649Z,98881.56
2023-02-16T19:11:37.314Z,98873.91
2023-02-16T19:14:06.043Z,98894.38
2023-02-16T19:16:37.278Z,98890.09
2023-02-16T19:19:05.657Z,98888.41
2023-02-16T19:21:36.964Z,98875.59
2023-02-16T19:24:06.433Z,98875.59
2023-02-16T19:26:35.603Z,98878.16
2023-02-16T19:29:05.408Z,98866.19
2023-02-16T19:31:36.676Z,98868.75
2023-02-16T19:34:05.733Z,98872.19
2023-02-16T19:36:36.734Z,98874.75
2023-02-16T19:39:09.706Z,98870.50
2023-02-16T19:41:48.506Z,98871.31
2023-02-16T19:44:17.640Z,98869.63
2023-02-16T19:46:47.651Z,98866.22
2023-02-16T19:49:17.485Z,98873.91
2023-02-16T19:51:47.792Z,98873.88
2023-02-16T19:54:16.574Z,98879.00
2023-02-16T19:56:45.183Z,98879.00
2023-02-16T19:59:15.605Z,98887.53
2023-02-16T20:01:43.744Z,98879.00
2023-02-16T20:04:13.658Z,98879.88
2023-02-16T20:06:42.325Z,98876.44
2023-02-16T20:09:13.487Z,98877.31
2023-02-16T20:11:42.957Z,98879.00
2023-02-16T20:14:13.394Z,98885.81
2023-02-16T20:16:42.363Z,98884.13
2023-02-16T20:19:11.017Z,98886.69
2023-02-16T20:21:44.193Z,98865.38
2023-02-16T20:24:13.203Z,98876.47
2023-02-16T20:26:45.005Z,98871.34
2023-02-16T20:29:16.377Z,98877.31
2023-02-16T20:31:49.992Z,98876.47
2023-02-16T20:34:19.501Z,98874.75
2023-02-16T20:36:49.439Z,98867.94
2023-02-16T20:39:17.997Z,98863.66
2023-02-16T20:41:47.054Z,98861.13
2023-02-16T20:44:15.885Z,98869.63
2023-02-16T20:46:45.218Z,98863.66
2023-02-16T20:49:13.687Z,98867.94
2023-02-16T20:51:42.483Z,98867.06
2023-02-16T20:54:13.491Z,98861.97
2023-02-16T20:56:42.241Z,98870.50
2023-02-16T20:59:14.356Z,98859.41
2023-02-16T21:01:46.691Z,98848.31
2023-02-16T21:04:17.798Z,98858.53
2023-02-16T21:06:46.815Z,98841.50
2023-02-16T21:09:17.229Z,98839.75
2023-02-16T21:11:45.411Z,98844.88
2023-02-16T21:14:14.216Z,98844.88
2023-02-16T21:16:42.790Z,98834.63
2023-02-16T21:19:22.118Z,98832.94
2023-02-16T21:21:51.391Z,98848.28
2023-02-16T21:24:21.456Z,98848.31
2023-02-16T21:26:49.967Z,98844.91
2023-02-16T21:29:18.531Z,98837.22
2023-02-16T21:31:47.113Z,98838.06
2023-02-16T21:34:15.352Z,98833.81
2023-02-16T21:36:44.409Z,98846.59
2023-02-16T21:39:14.610Z,98847.47
2023-02-16T21:41:43.449Z,98854.28
2023-02-16T21:44:14.051Z,98843.19
2023-02-16T21:46:44.225Z,98837.22
2023-02-16T21:49:14.234Z,98846.59
2023-02-16T21:51:44.657Z,98840.63
2023-02-16T21:54:15.647Z,98836.38
2023-02-16T21:56:46.183Z,98833.81
2023-02-16T21:59:16.312Z,98839.78
2023-02-16T22:01:47.478Z,98832.09
2023-02-16T22:04:17.766Z,98826.13
2023-02-16T22:06:48.318Z,98823.59
2023-02-16T22:09:18.872Z,98825.28
2023-02-16T22:11:49.596Z,98827.00
2023-02-16T22:14:18.336Z,98817.63
2023-02-16T22:16:49.023Z,98812.50
2023-02-16T22:19:19.905Z,98815.03
2023-02-16T22:21:49.672Z,98817.63
2023-02-16T22:24:19.518Z,98818.47
2023-02-16T22:26:51.281Z,98817.59
2023-02-16T22:29:20.663Z,98813.34
2023-02-16T22:31:51.357Z,98827.84
2023-02-16T22:34:21.975Z,98819.31
2023-02-16T22:36:51.473Z,98819.31
2023-02-16T22:39:21.084Z,98815.91
2023-02-16T22:41:52.539Z,98811.59
2023-02-16T22:44:20.911Z,98825.28
2023-02-16T22:46:49.518Z,98824.44
2023-02-16T22:49:18.685Z,98819.31
2023-02-16T22:51:47.503Z,98821.84
2023-02-16T22:54:16.882Z,98815.91
2023-02-16T22:56:46.208Z,98825.25
2023-02-16T22:59:16.028Z,98813.28
2023-02-16T23:01:44.613Z,98810.75
2023-02-16T23:04:15.675Z,98812.44
2023-02-16T23:06:47.806Z,98818.38
2023-02-16T23:09:18.699Z,98811.56
2023-02-16T23:11:47.530Z,98804.75
2023-02-16T23:14:17.886Z,98806.41
2023-02-16T23:16:47.165Z,98808.94
2023-02-16T23:19:18.332Z,98801.22
2023-02-16T23:21:47.026Z,98795.22
2023-02-16T23:24:17.981Z,98817.34
2023-02-16T23:26:46.829Z,98809.63
2023-02-16T23:29:16.844Z,98811.31
2023-02-16T23:31:48.113Z,98813.84
2023-02-16T23:34:17.104Z,98816.31
2023-02-16T23:36:46.029Z,98804.38
2023-02-16T23:39:16.968Z,98816.28
2023-02-16T23:41:45.255Z,98812.00
2023-02-16T23:44:15.184Z,98815.38
2023-02-16T23:46:45.051Z,98810.22
2023-02-16T23:49:13.396Z,98810.25
2023-02-16T23:51:41.912Z,98811.91
2023-02-16T23:54:11.634Z,98810.22
2023-02-16T23:56:41.685Z,98809.38
2023-02-16T23:59:10.003Z,98803.44
